sensor_id;sensor_type;location;lat;lon;timestamp;P1;durP1;ratioP1;P2;durP2;ratioP2
68300;SDS011;55146;47.468;18.806;2023-07-31T00:02:21;7.90;;;5.10;;
68300;SDS011;55146;47.468;18.806;2023-07-31T00:04:47;7.83;;;4.60;;
68300;SDS011;55146;47.468;18.806;2023-07-31T00:07:12;6.30;;;5.10;;
68300;SDS011;55146;47.468;18.806;2023-07-31T00:09:37;7.35;;;4.60;;
68300;SDS011;55146;47.468;18.806;2023-07-31T00:12:03;7.37;;;4.40;;
68300;SDS011;55146;47.468;18.806;2023-07-31T00:14:28;7.00;;;4.87;;
68300;SDS011;55146;47.468;18.806;2023-07-31T00:16:54;7.43;;;4.80;;
68300;SDS011;55146;47.468;18.806;2023-07-31T00:19:19;7.70;;;5.03;;
68300;SDS011;55146;47.468;18.806;2023-07-31T00:21:44;7.80;;;5.00;;
68300;SDS011;55146;47.468;18.806;2023-07-31T00:24:10;7.43;;;5.32;;
68300;SDS011;55146;47.468;18.806;2023-07-31T00:26:35;9.57;;;4.93;;
68300;SDS011;55146;47.468;18.806;2023-07-31T00:29:01;7.43;;;5.17;;
68300;SDS011;55146;47.468;18.806;2023-07-31T00:31:26;7.17;;;4.57;;
68300;SDS011;55146;47.468;18.806;2023-07-31T00:33:51;6.17;;;4.23;;
68300;SDS011;55146;47.468;18.806;2023-07-31T00:36:17;7.43;;;4.60;;
68300;SDS011;55146;47.468;18.806;2023-07-31T00:38:43;7.37;;;4.40;;
68300;SDS011;55146;47.468;18.806;2023-07-31T00:41:08;8.80;;;4.90;;
68300;SDS011;55146;47.468;18.806;2023-07-31T00:43:34;6.83;;;4.50;;
68300;SDS011;55146;47.468;18.806;2023-07-31T00:45:59;9.60;;;5.13;;
68300;SDS011;55146;47.468;18.806;2023-07-31T00:48:24;7.47;;;4.87;;
68300;SDS011;55146;47.468;18.806;2023-07-31T00:50:50;8.80;;;5.85;;
68300;SDS011;55146;47.468;18.806;2023-07-31T00:53:16;7.30;;;5.10;;
68300;SDS011;55146;47.468;18.806;2023-07-31T00:55:42;6.53;;;4.35;;
68300;SDS011;55146;47.468;18.806;2023-07-31T00:58:08;9.20;;;4.47;;
68300;SDS011;55146;47.468;18.806;2023-07-31T01:00:33;9.27;;;4.18;;
68300;SDS011;55146;47.468;18.806;2023-07-31T01:02:59;7.20;;;4.67;;
68300;SDS011;55146;47.468;18.806;2023-07-31T01:05:29;8.52;;;5.62;;
68300;SDS011;55146;47.468;18.806;2023-07-31T01:08:08;6.57;;;4.47;;
68300;SDS011;55146;47.468;18.806;2023-07-31T01:10:49;7.37;;;4.45;;
68300;SDS011;55146;47.468;18.806;2023-07-31T01:13:19;7.78;;;5.35;;
68300;SDS011;55146;47.468;18.806;2023-07-31T01:15:46;6.97;;;4.65;;
68300;SDS011;55146;47.468;18.806;2023-07-31T01:18:11;8.37;;;5.00;;
68300;SDS011;55146;47.468;18.806;2023-07-31T01:20:36;6.97;;;5.23;;
68300;SDS011;55146;47.468;18.806;2023-07-31T01:31:20;7.37;;;5.18;;
68300;SDS011;55146;47.468;18.806;2023-07-31T01:33:48;6.95;;;5.65;;
68300;SDS011;55146;47.468;18.806;2023-07-31T01:36:14;6.25;;;4.32;;
68300;SDS011;55146;47.468;18.806;2023-07-31T01:38:40;7.67;;;5.87;;
68300;SDS011;55146;47.468;18.806;2023-07-31T01:41:05;6.30;;;4.77;;
68300;SDS011;55146;47.468;18.806;2023-07-31T01:43:30;6.43;;;4.13;;
68300;SDS011;55146;47.468;18.806;2023-07-31T01:45:56;6.70;;;5.30;;
68300;SDS011;55146;47.468;18.806;2023-07-31T01:48:21;7.53;;;4.33;;
68300;SDS011;55146;47.468;18.806;2023-07-31T01:50:46;7.97;;;4.03;;
68300;SDS011;55146;47.468;18.806;2023-07-31T01:53:11;6.20;;;3.20;;
68300;SDS011;55146;47.468;18.806;2023-07-31T01:55:38;5.85;;;3.75;;
68300;SDS011;55146;47.468;18.806;2023-07-31T01:58:03;5.60;;;3.33;;
68300;SDS011;55146;47.468;18.806;2023-07-31T02:00:29;6.83;;;3.27;;
68300;SDS011;55146;47.468;18.806;2023-07-31T02:02:54;5.80;;;3.27;;
68300;SDS011;55146;47.468;18.806;2023-07-31T02:05:19;5.35;;;3.33;;
68300;SDS011;55146;47.468;18.806;2023-07-31T02:07:45;6.40;;;3.57;;
68300;SDS011;55146;47.468;18.806;2023-07-31T02:10:10;5.90;;;3.23;;
68300;SDS011;55146;47.468;18.806;2023-07-31T02:12:35;7.23;;;3.63;;
68300;SDS011;55146;47.468;18.806;2023-07-31T02:15:01;5.73;;;3.53;;
68300;SDS011;55146;47.468;18.806;2023-07-31T02:17:26;4.93;;;2.80;;
68300;SDS011;55146;47.468;18.806;2023-07-31T02:19:52;8.82;;;3.83;;
68300;SDS011;55146;47.468;18.806;2023-07-31T02:22:17;6.03;;;3.93;;
68300;SDS011;55146;47.468;18.806;2023-07-31T02:24:43;6.57;;;3.53;;
68300;SDS011;55146;47.468;18.806;2023-07-31T02:27:08;5.07;;;3.33;;
68300;SDS011;55146;47.468;18.806;2023-07-31T02:29:34;6.33;;;3.00;;
68300;SDS011;55146;47.468;18.806;2023-07-31T02:31:59;6.93;;;3.73;;
68300;SDS011;55146;47.468;18.806;2023-07-31T02:34:24;4.53;;;2.43;;
68300;SDS011;55146;47.468;18.806;2023-07-31T02:36:50;5.43;;;3.50;;
68300;SDS011;55146;47.468;18.806;2023-07-31T02:39:15;4.73;;;2.97;;
68300;SDS011;55146;47.468;18.806;2023-07-31T02:41:40;6.30;;;3.17;;
68300;SDS011;55146;47.468;18.806;2023-07-31T02:44:06;7.07;;;3.05;;
68300;SDS011;55146;47.468;18.806;2023-07-31T02:46:31;6.53;;;3.33;;
68300;SDS011;55146;47.468;18.806;2023-07-31T02:48:56;5.27;;;3.40;;
68300;SDS011;55146;47.468;18.806;2023-07-31T02:51:22;6.23;;;3.50;;
68300;SDS011;55146;47.468;18.806;2023-07-31T02:53:47;7.18;;;3.95;;
68300;SDS011;55146;47.468;18.806;2023-07-31T02:56:13;6.33;;;3.10;;
68300;SDS011;55146;47.468;18.806;2023-07-31T02:58:38;5.07;;;2.67;;
68300;SDS011;55146;47.468;18.806;2023-07-31T03:01:04;5.90;;;3.23;;
68300;SDS011;55146;47.468;18.806;2023-07-31T03:03:29;4.78;;;3.00;;
68300;SDS011;55146;47.468;18.806;2023-07-31T03:05:54;4.77;;;3.13;;
68300;SDS011;55146;47.468;18.806;2023-07-31T03:08:20;6.50;;;3.33;;
68300;SDS011;55146;47.468;18.806;2023-07-31T03:10:46;5.93;;;2.97;;
68300;SDS011;55146;47.468;18.806;2023-07-31T03:13:11;5.20;;;3.10;;
68300;SDS011;55146;47.468;18.806;2023-07-31T03:15:36;5.10;;;3.07;;
68300;SDS011;55146;47.468;18.806;2023-07-31T03:18:02;6.60;;;3.00;;
68300;SDS011;55146;47.468;18.806;2023-07-31T03:20:27;6.67;;;3.23;;
68300;SDS011;55146;47.468;18.806;2023-07-31T03:22:52;5.37;;;3.00;;
68300;SDS011;55146;47.468;18.806;2023-07-31T03:25:18;5.32;;;2.67;;
68300;SDS011;55146;47.468;18.806;2023-07-31T03:27:43;5.70;;;3.23;;
68300;SDS011;55146;47.468;18.806;2023-07-31T03:30:09;5.10;;;3.43;;
68300;SDS011;55146;47.468;18.806;2023-07-31T03:32:34;4.95;;;2.72;;
68300;SDS011;55146;47.468;18.806;2023-07-31T03:35:00;6.40;;;3.83;;
68300;SDS011;55146;47.468;18.806;2023-07-31T03:37:25;5.40;;;3.33;;
68300;SDS011;55146;47.468;18.806;2023-07-31T03:39:51;7.12;;;3.55;;
68300;SDS011;55146;47.468;18.806;2023-07-31T03:42:16;4.87;;;2.53;;
68300;SDS011;55146;47.468;18.806;2023-07-31T03:44:42;6.40;;;3.30;;
68300;SDS011;55146;47.468;18.806;2023-07-31T03:47:07;4.77;;;2.77;;
68300;SDS011;55146;47.468;18.806;2023-07-31T03:49:32;7.17;;;2.90;;
68300;SDS011;55146;47.468;18.806;2023-07-31T03:51:58;6.63;;;3.53;;
68300;SDS011;55146;47.468;18.806;2023-07-31T03:54:23;4.80;;;3.00;;
68300;SDS011;55146;47.468;18.806;2023-07-31T03:56:49;5.23;;;2.37;;
68300;SDS011;55146;47.468;18.806;2023-07-31T03:59:14;6.33;;;2.73;;
68300;SDS011;55146;47.468;18.806;2023-07-31T04:01:39;5.07;;;2.83;;
68300;SDS011;55146;47.468;18.806;2023-07-31T04:04:05;8.88;;;3.22;;
68300;SDS011;55146;47.468;18.806;2023-07-31T04:06:30;5.23;;;2.60;;
68300;SDS011;55146;47.468;18.806;2023-07-31T04:08:56;6.07;;;2.43;;
68300;SDS011;55146;47.468;18.806;2023-07-31T04:11:21;5.67;;;2.40;;
68300;SDS011;55146;47.468;18.806;2023-07-31T04:13:46;5.57;;;2.33;;
68300;SDS011;55146;47.468;18.806;2023-07-31T04:16:12;5.60;;;3.10;;
68300;SDS011;55146;47.468;18.806;2023-07-31T04:18:37;5.93;;;2.70;;
68300;SDS011;55146;47.468;18.806;2023-07-31T04:21:03;5.27;;;3.10;;
68300;SDS011;55146;47.468;18.806;2023-07-31T04:23:28;5.50;;;2.37;;
68300;SDS011;55146;47.468;18.806;2023-07-31T04:25:53;4.87;;;2.53;;
68300;SDS011;55146;47.468;18.806;2023-07-31T04:28:19;4.37;;;2.85;;
68300;SDS011;55146;47.468;18.806;2023-07-31T04:30:44;5.20;;;3.07;;
68300;SDS011;55146;47.468;18.806;2023-07-31T04:33:12;4.80;;;2.17;;
68300;SDS011;55146;47.468;18.806;2023-07-31T04:35:37;5.40;;;2.85;;
68300;SDS011;55146;47.468;18.806;2023-07-31T04:38:02;7.13;;;3.33;;
68300;SDS011;55146;47.468;18.806;2023-07-31T04:40:28;4.93;;;2.60;;
68300;SDS011;55146;47.468;18.806;2023-07-31T04:42:53;5.10;;;2.90;;
68300;SDS011;55146;47.468;18.806;2023-07-31T04:45:18;4.43;;;2.50;;
68300;SDS011;55146;47.468;18.806;2023-07-31T04:47:44;6.17;;;2.43;;
68300;SDS011;55146;47.468;18.806;2023-07-31T04:50:09;4.47;;;2.33;;
68300;SDS011;55146;47.468;18.806;2023-07-31T04:52:35;5.62;;;3.45;;
68300;SDS011;55146;47.468;18.806;2023-07-31T04:55:00;8.03;;;2.27;;
68300;SDS011;55146;47.468;18.806;2023-07-31T04:57:25;7.10;;;2.60;;
68300;SDS011;55146;47.468;18.806;2023-07-31T04:59:51;4.47;;;1.90;;
68300;SDS011;55146;47.468;18.806;2023-07-31T05:02:16;8.87;;;2.60;;
68300;SDS011;55146;47.468;18.806;2023-07-31T05:04:42;5.20;;;2.70;;
68300;SDS011;55146;47.468;18.806;2023-07-31T05:07:07;4.90;;;2.10;;
68300;SDS011;55146;47.468;18.806;2023-07-31T05:09:32;5.37;;;2.10;;
68300;SDS011;55146;47.468;18.806;2023-07-31T05:11:58;5.97;;;2.03;;
68300;SDS011;55146;47.468;18.806;2023-07-31T05:14:23;5.37;;;2.57;;
68300;SDS011;55146;47.468;18.806;2023-07-31T05:16:48;6.47;;;2.33;;
68300;SDS011;55146;47.468;18.806;2023-07-31T05:19:14;5.97;;;2.70;;
68300;SDS011;55146;47.468;18.806;2023-07-31T05:21:39;5.87;;;2.90;;
68300;SDS011;55146;47.468;18.806;2023-07-31T05:24:05;7.33;;;2.20;;
68300;SDS011;55146;47.468;18.806;2023-07-31T05:26:31;4.47;;;2.45;;
68300;SDS011;55146;47.468;18.806;2023-07-31T05:28:57;7.13;;;2.73;;
68300;SDS011;55146;47.468;18.806;2023-07-31T05:31:23;7.05;;;2.62;;
68300;SDS011;55146;47.468;18.806;2023-07-31T05:33:49;7.65;;;2.42;;
68300;SDS011;55146;47.468;18.806;2023-07-31T05:36:15;4.67;;;2.00;;
68300;SDS011;55146;47.468;18.806;2023-07-31T05:38:40;7.25;;;2.92;;
68300;SDS011;55146;47.468;18.806;2023-07-31T05:41:07;6.18;;;2.22;;
68300;SDS011;55146;47.468;18.806;2023-07-31T05:43:32;7.97;;;2.67;;
68300;SDS011;55146;47.468;18.806;2023-07-31T05:45:57;7.03;;;2.87;;
68300;SDS011;55146;47.468;18.806;2023-07-31T05:48:23;4.67;;;2.57;;
68300;SDS011;55146;47.468;18.806;2023-07-31T05:50:48;5.80;;;2.27;;
68300;SDS011;55146;47.468;18.806;2023-07-31T05:53:13;4.03;;;2.47;;
68300;SDS011;55146;47.468;18.806;2023-07-31T05:55:39;4.67;;;2.30;;
68300;SDS011;55146;47.468;18.806;2023-07-31T05:58:04;6.43;;;3.07;;
68300;SDS011;55146;47.468;18.806;2023-07-31T06:00:29;5.15;;;2.30;;
68300;SDS011;55146;47.468;18.806;2023-07-31T06:02:55;8.37;;;2.90;;
68300;SDS011;55146;47.468;18.806;2023-07-31T06:05:20;6.97;;;2.17;;
68300;SDS011;55146;47.468;18.806;2023-07-31T06:07:45;6.87;;;2.77;;
68300;SDS011;55146;47.468;18.806;2023-07-31T06:10:11;7.37;;;2.13;;
68300;SDS011;55146;47.468;18.806;2023-07-31T06:12:36;6.77;;;2.70;;
68300;SDS011;55146;47.468;18.806;2023-07-31T06:15:02;8.13;;;2.67;;
68300;SDS011;55146;47.468;18.806;2023-07-31T06:17:28;6.40;;;2.50;;
68300;SDS011;55146;47.468;18.806;2023-07-31T06:19:54;5.00;;;1.95;;
68300;SDS011;55146;47.468;18.806;2023-07-31T06:22:21;8.60;;;2.60;;
68300;SDS011;55146;47.468;18.806;2023-07-31T06:24:46;6.30;;;3.17;;
68300;SDS011;55146;47.468;18.806;2023-07-31T06:27:12;5.27;;;2.00;;
68300;SDS011;55146;47.468;18.806;2023-07-31T06:29:37;6.43;;;2.40;;
68300;SDS011;55146;47.468;18.806;2023-07-31T06:32:02;5.65;;;2.58;;
68300;SDS011;55146;47.468;18.806;2023-07-31T06:34:28;6.30;;;3.53;;
68300;SDS011;55146;47.468;18.806;2023-07-31T06:36:55;5.82;;;2.80;;
68300;SDS011;55146;47.468;18.806;2023-07-31T06:39:22;7.87;;;2.60;;
68300;SDS011;55146;47.468;18.806;2023-07-31T06:41:49;5.80;;;2.05;;
68300;SDS011;55146;47.468;18.806;2023-07-31T06:44:14;5.75;;;2.37;;
68300;SDS011;55146;47.468;18.806;2023-07-31T06:46:40;5.77;;;1.80;;
68300;SDS011;55146;47.468;18.806;2023-07-31T06:49:05;8.05;;;2.10;;
68300;SDS011;55146;47.468;18.806;2023-07-31T06:51:31;8.13;;;2.63;;
68300;SDS011;55146;47.468;18.806;2023-07-31T06:53:57;5.17;;;3.13;;
68300;SDS011;55146;47.468;18.806;2023-07-31T06:56:22;6.97;;;2.78;;
68300;SDS011;55146;47.468;18.806;2023-07-31T06:58:54;8.55;;;2.85;;
68300;SDS011;55146;47.468;18.806;2023-07-31T07:01:20;4.57;;;2.17;;
68300;SDS011;55146;47.468;18.806;2023-07-31T07:03:45;6.37;;;2.22;;
68300;SDS011;55146;47.468;18.806;2023-07-31T07:06:11;6.53;;;2.13;;
68300;SDS011;55146;47.468;18.806;2023-07-31T07:08:37;6.53;;;3.10;;
68300;SDS011;55146;47.468;18.806;2023-07-31T07:11:02;5.73;;;2.97;;
68300;SDS011;55146;47.468;18.806;2023-07-31T07:13:27;8.23;;;2.50;;
68300;SDS011;55146;47.468;18.806;2023-07-31T07:15:53;5.83;;;2.87;;
68300;SDS011;55146;47.468;18.806;2023-07-31T07:18:18;6.37;;;2.27;;
68300;SDS011;55146;47.468;18.806;2023-07-31T07:20:47;5.73;;;2.43;;
68300;SDS011;55146;47.468;18.806;2023-07-31T07:23:14;5.07;;;2.25;;
68300;SDS011;55146;47.468;18.806;2023-07-31T07:25:40;4.97;;;2.10;;
68300;SDS011;55146;47.468;18.806;2023-07-31T07:28:05;7.50;;;1.83;;
68300;SDS011;55146;47.468;18.806;2023-07-31T07:30:30;4.50;;;1.90;;
68300;SDS011;55146;47.468;18.806;2023-07-31T07:32:56;4.50;;;2.60;;
68300;SDS011;55146;47.468;18.806;2023-07-31T07:35:21;5.43;;;1.83;;
68300;SDS011;55146;47.468;18.806;2023-07-31T07:37:48;6.43;;;2.43;;
68300;SDS011;55146;47.468;18.806;2023-07-31T07:40:15;8.00;;;2.90;;
68300;SDS011;55146;47.468;18.806;2023-07-31T07:42:40;7.18;;;2.55;;
68300;SDS011;55146;47.468;18.806;2023-07-31T07:45:06;6.03;;;2.00;;
68300;SDS011;55146;47.468;18.806;2023-07-31T07:47:31;6.50;;;2.13;;
68300;SDS011;55146;47.468;18.806;2023-07-31T07:49:57;7.97;;;2.53;;
68300;SDS011;55146;47.468;18.806;2023-07-31T07:52:22;6.67;;;2.27;;
68300;SDS011;55146;47.468;18.806;2023-07-31T07:54:47;6.50;;;1.70;;
68300;SDS011;55146;47.468;18.806;2023-07-31T07:57:13;6.67;;;2.63;;
68300;SDS011;55146;47.468;18.806;2023-07-31T07:59:39;6.05;;;2.70;;
68300;SDS011;55146;47.468;18.806;2023-07-31T08:02:05;6.93;;;2.42;;
68300;SDS011;55146;47.468;18.806;2023-07-31T08:04:30;4.87;;;2.40;;
68300;SDS011;55146;47.468;18.806;2023-07-31T08:06:56;5.33;;;2.53;;
68300;SDS011;55146;47.468;18.806;2023-07-31T08:09:21;4.63;;;2.53;;
68300;SDS011;55146;47.468;18.806;2023-07-31T08:11:47;9.77;;;3.20;;
68300;SDS011;55146;47.468;18.806;2023-07-31T08:14:27;5.35;;;2.58;;
68300;SDS011;55146;47.468;18.806;2023-07-31T08:16:52;7.47;;;2.83;;
68300;SDS011;55146;47.468;18.806;2023-07-31T08:19:18;6.90;;;2.73;;
68300;SDS011;55146;47.468;18.806;2023-07-31T08:21:43;7.10;;;2.40;;
68300;SDS011;55146;47.468;18.806;2023-07-31T08:24:11;6.43;;;2.83;;
68300;SDS011;55146;47.468;18.806;2023-07-31T08:26:37;6.80;;;3.22;;
68300;SDS011;55146;47.468;18.806;2023-07-31T08:29:02;5.53;;;2.23;;
68300;SDS011;55146;47.468;18.806;2023-07-31T08:31:28;5.82;;;2.45;;
68300;SDS011;55146;47.468;18.806;2023-07-31T08:33:54;8.00;;;2.83;;
68300;SDS011;55146;47.468;18.806;2023-07-31T08:36:19;6.57;;;1.53;;
68300;SDS011;55146;47.468;18.806;2023-07-31T08:38:45;6.73;;;2.80;;
68300;SDS011;55146;47.468;18.806;2023-07-31T08:41:10;7.93;;;2.43;;
68300;SDS011;55146;47.468;18.806;2023-07-31T08:43:36;6.77;;;2.57;;
68300;SDS011;55146;47.468;18.806;2023-07-31T08:46:02;6.20;;;2.20;;
68300;SDS011;55146;47.468;18.806;2023-07-31T08:48:28;6.25;;;2.47;;
68300;SDS011;55146;47.468;18.806;2023-07-31T08:50:54;10.80;;;2.30;;
68300;SDS011;55146;47.468;18.806;2023-07-31T08:53:20;5.35;;;2.22;;
68300;SDS011;55146;47.468;18.806;2023-07-31T08:55:46;7.97;;;2.50;;
68300;SDS011;55146;47.468;18.806;2023-07-31T08:58:13;6.87;;;2.60;;
68300;SDS011;55146;47.468;18.806;2023-07-31T09:00:40;8.50;;;2.78;;
68300;SDS011;55146;47.468;18.806;2023-07-31T09:03:09;7.60;;;2.37;;
68300;SDS011;55146;47.468;18.806;2023-07-31T09:05:45;5.83;;;2.47;;
68300;SDS011;55146;47.468;18.806;2023-07-31T09:08:15;6.37;;;2.58;;
68300;SDS011;55146;47.468;18.806;2023-07-31T09:10:45;5.10;;;2.30;;
68300;SDS011;55146;47.468;18.806;2023-07-31T09:13:14;6.20;;;2.83;;
68300;SDS011;55146;47.468;18.806;2023-07-31T09:15:45;6.80;;;2.13;;
68300;SDS011;55146;47.468;18.806;2023-07-31T09:18:11;4.82;;;2.20;;
68300;SDS011;55146;47.468;18.806;2023-07-31T09:20:37;5.62;;;2.33;;
68300;SDS011;55146;47.468;18.806;2023-07-31T09:23:10;7.50;;;2.50;;
68300;SDS011;55146;47.468;18.806;2023-07-31T09:25:37;8.90;;;2.47;;
68300;SDS011;55146;47.468;18.806;2023-07-31T09:28:04;7.07;;;2.22;;
68300;SDS011;55146;47.468;18.806;2023-07-31T09:30:49;6.53;;;2.80;;
68300;SDS011;55146;47.468;18.806;2023-07-31T09:33:16;6.50;;;2.40;;
68300;SDS011;55146;47.468;18.806;2023-07-31T09:35:42;9.90;;;2.63;;
68300;SDS011;55146;47.468;18.806;2023-07-31T09:38:12;7.30;;;2.62;;
68300;SDS011;55146;47.468;18.806;2023-07-31T09:40:40;7.68;;;2.10;;
68300;SDS011;55146;47.468;18.806;2023-07-31T09:43:07;7.78;;;2.22;;
68300;SDS011;55146;47.468;18.806;2023-07-31T09:45:36;5.20;;;1.95;;
68300;SDS011;55146;47.468;18.806;2023-07-31T09:48:02;3.60;;;1.57;;
68300;SDS011;55146;47.468;18.806;2023-07-31T09:50:31;9.38;;;1.90;;
68300;SDS011;55146;47.468;18.806;2023-07-31T09:52:57;11.60;;;1.83;;
68300;SDS011;55146;47.468;18.806;2023-07-31T09:55:23;5.18;;;1.87;;
68300;SDS011;55146;47.468;18.806;2023-07-31T09:57:49;10.27;;;2.87;;
68300;SDS011;55146;47.468;18.806;2023-07-31T10:00:16;7.87;;;1.87;;
68300;SDS011;55146;47.468;18.806;2023-07-31T10:02:46;6.85;;;2.12;;
68300;SDS011;55146;47.468;18.806;2023-07-31T10:05:15;7.22;;;2.72;;
68300;SDS011;55146;47.468;18.806;2023-07-31T10:07:42;7.20;;;2.10;;
68300;SDS011;55146;47.468;18.806;2023-07-31T10:10:23;7.97;;;1.80;;
68300;SDS011;55146;47.468;18.806;2023-07-31T10:12:49;5.43;;;2.53;;
68300;SDS011;55146;47.468;18.806;2023-07-31T10:15:16;9.05;;;2.05;;
68300;SDS011;55146;47.468;18.806;2023-07-31T10:17:42;8.20;;;2.17;;
68300;SDS011;55146;47.468;18.806;2023-07-31T10:20:08;5.53;;;1.83;;
68300;SDS011;55146;47.468;18.806;2023-07-31T10:22:36;6.57;;;2.22;;
68300;SDS011;55146;47.468;18.806;2023-07-31T10:25:02;5.60;;;2.37;;
68300;SDS011;55146;47.468;18.806;2023-07-31T10:27:27;4.53;;;2.45;;
68300;SDS011;55146;47.468;18.806;2023-07-31T10:29:54;5.30;;;2.40;;
68300;SDS011;55146;47.468;18.806;2023-07-31T10:32:21;7.28;;;2.42;;
68300;SDS011;55146;47.468;18.806;2023-07-31T10:34:49;6.85;;;2.83;;
68300;SDS011;55146;47.468;18.806;2023-07-31T10:37:27;4.93;;;1.77;;
68300;SDS011;55146;47.468;18.806;2023-07-31T10:40:04;4.32;;;1.73;;
68300;SDS011;55146;47.468;18.806;2023-07-31T10:42:35;4.97;;;1.90;;
68300;SDS011;55146;47.468;18.806;2023-07-31T10:48:05;6.50;;;2.20;;
68300;SDS011;55146;47.468;18.806;2023-07-31T10:50:38;4.07;;;2.13;;
68300;SDS011;55146;47.468;18.806;2023-07-31T10:53:21;5.00;;;2.37;;
68300;SDS011;55146;47.468;18.806;2023-07-31T10:55:51;7.22;;;2.42;;
68300;SDS011;55146;47.468;18.806;2023-07-31T10:58:18;5.17;;;1.97;;
68300;SDS011;55146;47.468;18.806;2023-07-31T11:00:46;7.90;;;2.83;;
68300;SDS011;55146;47.468;18.806;2023-07-31T11:03:13;5.90;;;2.08;;
68300;SDS011;55146;47.468;18.806;2023-07-31T11:08:12;4.23;;;1.87;;
68300;SDS011;55146;47.468;18.806;2023-07-31T11:10:38;5.45;;;1.85;;
68300;SDS011;55146;47.468;18.806;2023-07-31T11:13:04;6.23;;;2.13;;
68300;SDS011;55146;47.468;18.806;2023-07-31T11:15:31;4.43;;;2.20;;
68300;SDS011;55146;47.468;18.806;2023-07-31T11:17:57;4.70;;;1.57;;
68300;SDS011;55146;47.468;18.806;2023-07-31T11:20:25;7.82;;;2.20;;
68300;SDS011;55146;47.468;18.806;2023-07-31T11:22:50;4.87;;;1.90;;
68300;SDS011;55146;47.468;18.806;2023-07-31T11:25:16;5.00;;;1.83;;
68300;SDS011;55146;47.468;18.806;2023-07-31T11:27:42;6.00;;;2.08;;
68300;SDS011;55146;47.468;18.806;2023-07-31T11:30:08;5.57;;;2.10;;
68300;SDS011;55146;47.468;18.806;2023-07-31T11:32:37;7.57;;;2.17;;
68300;SDS011;55146;47.468;18.806;2023-07-31T11:35:03;5.45;;;1.90;;
68300;SDS011;55146;47.468;18.806;2023-07-31T11:37:43;5.12;;;1.80;;
68300;SDS011;55146;47.468;18.806;2023-07-31T11:40:09;10.95;;;1.92;;
68300;SDS011;55146;47.468;18.806;2023-07-31T11:42:35;4.03;;;2.67;;
68300;SDS011;55146;47.468;18.806;2023-07-31T11:45:04;6.10;;;2.50;;
68300;SDS011;55146;47.468;18.806;2023-07-31T11:47:34;5.15;;;2.15;;
68300;SDS011;55146;47.468;18.806;2023-07-31T11:50:05;6.80;;;1.60;;
68300;SDS011;55146;47.468;18.806;2023-07-31T11:52:42;5.75;;;2.08;;
68300;SDS011;55146;47.468;18.806;2023-07-31T11:55:11;5.32;;;2.58;;
68300;SDS011;55146;47.468;18.806;2023-07-31T11:57:38;4.65;;;1.98;;
68300;SDS011;55146;47.468;18.806;2023-07-31T12:00:06;4.72;;;1.73;;
68300;SDS011;55146;47.468;18.806;2023-07-31T12:02:36;4.17;;;1.20;;
68300;SDS011;55146;47.468;18.806;2023-07-31T12:05:03;5.60;;;1.85;;
68300;SDS011;55146;47.468;18.806;2023-07-31T12:07:44;4.12;;;1.85;;
68300;SDS011;55146;47.468;18.806;2023-07-31T12:15:29;5.37;;;1.63;;
68300;SDS011;55146;47.468;18.806;2023-07-31T12:18:08;6.60;;;2.65;;
68300;SDS011;55146;47.468;18.806;2023-07-31T12:20:47;6.10;;;2.05;;
68300;SDS011;55146;47.468;18.806;2023-07-31T12:23:24;5.28;;;1.90;;
68300;SDS011;55146;47.468;18.806;2023-07-31T12:26:04;8.10;;;1.85;;
68300;SDS011;55146;47.468;18.806;2023-07-31T12:28:44;8.13;;;2.00;;
68300;SDS011;55146;47.468;18.806;2023-07-31T12:31:14;5.68;;;2.42;;
68300;SDS011;55146;47.468;18.806;2023-07-31T12:33:44;6.90;;;2.75;;
68300;SDS011;55146;47.468;18.806;2023-07-31T12:36:12;7.72;;;2.33;;
68300;SDS011;55146;47.468;18.806;2023-07-31T12:38:41;9.63;;;3.15;;
68300;SDS011;55146;47.468;18.806;2023-07-31T12:41:07;7.80;;;1.70;;
68300;SDS011;55146;47.468;18.806;2023-07-31T12:43:36;4.97;;;1.87;;
68300;SDS011;55146;47.468;18.806;2023-07-31T12:46:03;5.78;;;2.05;;
68300;SDS011;55146;47.468;18.806;2023-07-31T12:48:29;8.37;;;2.10;;
68300;SDS011;55146;47.468;18.806;2023-07-31T12:50:54;15.73;;;3.75;;
68300;SDS011;55146;47.468;18.806;2023-07-31T12:53:20;7.57;;;2.20;;
68300;SDS011;55146;47.468;18.806;2023-07-31T12:55:45;7.30;;;2.33;;
68300;SDS011;55146;47.468;18.806;2023-07-31T12:58:11;6.35;;;2.25;;
68300;SDS011;55146;47.468;18.806;2023-07-31T13:00:37;4.97;;;2.30;;
68300;SDS011;55146;47.468;18.806;2023-07-31T13:03:02;9.00;;;2.20;;
68300;SDS011;55146;47.468;18.806;2023-07-31T13:05:28;7.40;;;2.30;;
68300;SDS011;55146;47.468;18.806;2023-07-31T13:07:54;6.00;;;2.00;;
68300;SDS011;55146;47.468;18.806;2023-07-31T13:10:21;8.32;;;2.00;;
68300;SDS011;55146;47.468;18.806;2023-07-31T13:12:48;7.40;;;2.40;;
68300;SDS011;55146;47.468;18.806;2023-07-31T13:15:13;14.00;;;3.27;;
68300;SDS011;55146;47.468;18.806;2023-07-31T13:17:39;10.07;;;2.53;;
68300;SDS011;55146;47.468;18.806;2023-07-31T13:20:05;5.53;;;2.40;;
68300;SDS011;55146;47.468;18.806;2023-07-31T13:22:30;11.63;;;2.45;;
68300;SDS011;55146;47.468;18.806;2023-07-31T13:24:56;17.07;;;2.70;;
68300;SDS011;55146;47.468;18.806;2023-07-31T13:27:21;4.63;;;1.50;;
68300;SDS011;55146;47.468;18.806;2023-07-31T13:29:48;7.07;;;2.80;;
68300;SDS011;55146;47.468;18.806;2023-07-31T13:32:14;7.82;;;1.87;;
68300;SDS011;55146;47.468;18.806;2023-07-31T13:34:40;6.27;;;2.27;;
68300;SDS011;55146;47.468;18.806;2023-07-31T13:37:05;6.33;;;2.07;;
68300;SDS011;55146;47.468;18.806;2023-07-31T13:39:31;8.43;;;2.70;;
68300;SDS011;55146;47.468;18.806;2023-07-31T13:41:59;6.68;;;2.30;;
68300;SDS011;55146;47.468;18.806;2023-07-31T13:44:24;5.68;;;2.65;;
68300;SDS011;55146;47.468;18.806;2023-07-31T13:46:50;5.40;;;2.70;;
68300;SDS011;55146;47.468;18.806;2023-07-31T13:49:16;3.70;;;1.50;;
68300;SDS011;55146;47.468;18.806;2023-07-31T13:51:41;6.78;;;2.28;;
68300;SDS011;55146;47.468;18.806;2023-07-31T13:54:07;5.17;;;2.23;;
68300;SDS011;55146;47.468;18.806;2023-07-31T13:56:32;6.33;;;2.63;;
68300;SDS011;55146;47.468;18.806;2023-07-31T13:58:58;4.83;;;2.33;;
68300;SDS011;55146;47.468;18.806;2023-07-31T14:01:23;4.10;;;1.70;;
68300;SDS011;55146;47.468;18.806;2023-07-31T14:03:49;6.23;;;2.13;;
68300;SDS011;55146;47.468;18.806;2023-07-31T14:06:14;5.83;;;2.43;;
68300;SDS011;55146;47.468;18.806;2023-07-31T14:08:40;5.68;;;2.12;;
68300;SDS011;55146;47.468;18.806;2023-07-31T14:11:05;6.23;;;2.13;;
68300;SDS011;55146;47.468;18.806;2023-07-31T14:13:30;8.33;;;2.13;;
68300;SDS011;55146;47.468;18.806;2023-07-31T14:15:56;5.37;;;1.70;;
68300;SDS011;55146;47.468;18.806;2023-07-31T14:18:21;5.40;;;2.43;;
68300;SDS011;55146;47.468;18.806;2023-07-31T14:20:46;5.95;;;2.62;;
68300;SDS011;55146;47.468;18.806;2023-07-31T14:23:12;4.90;;;2.80;;
68300;SDS011;55146;47.468;18.806;2023-07-31T14:25:39;6.43;;;3.13;;
68300;SDS011;55146;47.468;18.806;2023-07-31T14:28:04;5.00;;;2.53;;
68300;SDS011;55146;47.468;18.806;2023-07-31T14:30:30;4.93;;;1.97;;
68300;SDS011;55146;47.468;18.806;2023-07-31T14:32:55;4.37;;;2.37;;
68300;SDS011;55146;47.468;18.806;2023-07-31T14:35:20;5.97;;;2.37;;
68300;SDS011;55146;47.468;18.806;2023-07-31T14:37:46;4.72;;;2.03;;
68300;SDS011;55146;47.468;18.806;2023-07-31T14:40:11;6.73;;;2.60;;
68300;SDS011;55146;47.468;18.806;2023-07-31T14:42:38;9.57;;;2.17;;
68300;SDS011;55146;47.468;18.806;2023-07-31T14:45:04;6.47;;;1.98;;
68300;SDS011;55146;47.468;18.806;2023-07-31T14:47:31;5.15;;;1.77;;
68300;SDS011;55146;47.468;18.806;2023-07-31T14:49:57;5.37;;;2.15;;